Airport ICAO


14:00 UTC

14°C

Broken clouds


An affordable passengers' Moving Map for your aircraft. Made for the iPad and the iPhone
More information here

LFOB Tille


Beauvais FRANCE   VFR CB


METAR LFOB 231330Z AUTO 33009KT 9999 BKN013/// BKN032/// BKN066/// ///TCU 14/13 Q1014 TEMPO 3000 SHRA BKN008 BKN015CB BECMG 34015G25KT 0h30min

TAF AMD LFOB 231227Z 2312/2412 34015G25KT 9999 BKN015 TEMPO 2312/2320 3000 SHRA BKN008 BKN015CB BECMG 2321/2324 30005KT NSC TEMPO 2403/2407 4000 BR 1h33min





NOTAMS

OPEN